createdAt,value
2019-01-05T00:00:49.638Z,21.37
2019-01-05T00:01:49.593Z,21.40
2019-01-05T00:02:49.646Z,21.34
2019-01-05T00:03:49.498Z,21.31
2019-01-05T00:04:49.451Z,21.38
2019-01-05T00:05:49.404Z,21.31
2019-01-05T00:06:49.358Z,21.38
2019-01-05T00:07:49.309Z,21.32
2019-01-05T00:08:49.263Z,21.28
2019-01-05T00:09:49.219Z,21.37
2019-01-05T00:10:49.171Z,21.40
2019-01-05T00:11:49.123Z,21.42
2019-01-05T00:12:49.075Z,21.42
2019-01-05T00:13:49.029Z,21.38
2019-01-05T00:14:48.983Z,21.35
2019-01-05T00:15:48.935Z,21.43
2019-01-05T00:16:48.889Z,21.42
2019-01-05T00:17:48.842Z,21.35
2019-01-05T00:18:48.795Z,21.40
2019-01-05T00:19:48.748Z,21.44
2019-01-05T00:20:48.700Z,21.28
2019-01-05T00:21:48.655Z,21.37
2019-01-05T00:22:48.608Z,21.43
2019-01-05T00:23:48.560Z,21.37
2019-01-05T00:24:48.514Z,21.40
2019-01-05T00:25:48.467Z,21.32
2019-01-05T00:26:48.421Z,21.32
2019-01-05T00:27:48.373Z,21.38
2019-01-05T00:28:48.326Z,21.32
2019-01-05T00:29:48.280Z,21.50
2019-01-05T00:30:48.233Z,21.32
2019-01-05T00:31:48.184Z,21.43
2019-01-05T00:32:48.139Z,21.34
2019-01-05T00:33:48.093Z,21.38
2019-01-05T00:34:48.045Z,21.42
2019-01-05T00:35:47.999Z,21.34
2019-01-05T00:36:47.951Z,21.34
2019-01-05T00:37:47.905Z,21.37
2019-01-05T00:38:47.857Z,21.31
2019-01-05T00:39:47.811Z,21.42
2019-01-05T00:40:47.768Z,21.31
2019-01-05T00:41:47.717Z,21.37
2019-01-05T00:42:47.671Z,21.40
2019-01-05T00:43:47.623Z,21.44
2019-01-05T00:44:47.627Z,21.31
2019-01-05T00:45:47.530Z,21.31
2019-01-05T00:46:47.483Z,21.35
2019-01-05T00:47:47.436Z,21.44
2019-01-05T00:48:47.389Z,21.40
2019-01-05T00:49:47.341Z,21.35
2019-01-05T00:50:47.613Z,21.35
2019-01-05T00:51:47.249Z,21.31
2019-01-05T00:52:47.202Z,21.35
2019-01-05T00:53:47.155Z,21.37
2019-01-05T00:54:47.110Z,21.29
2019-01-05T00:55:47.061Z,21.42
2019-01-05T00:56:47.014Z,21.37
2019-01-05T00:57:46.967Z,21.31
2019-01-05T00:58:46.923Z,21.32
2019-01-05T00:59:46.873Z,21.40
2019-01-05T01:00:46.827Z,21.32
2019-01-05T01:01:46.779Z,21.37
2019-01-05T01:02:46.734Z,21.35
2019-01-05T01:03:46.686Z,21.28
2019-01-05T01:04:46.639Z,21.42
2019-01-05T01:05:46.593Z,21.40
2019-01-05T01:06:46.595Z,21.44
2019-01-05T01:07:46.499Z,21.31
2019-01-05T01:08:46.452Z,21.35
2019-01-05T01:09:46.413Z,21.44
2019-01-05T01:10:46.360Z,21.37
2019-01-05T01:11:46.311Z,21.40
2019-01-05T01:12:46.264Z,21.40
2019-01-05T01:13:46.218Z,21.46
2019-01-05T01:14:46.171Z,21.42
2019-01-05T01:15:46.123Z,21.35
2019-01-05T01:16:46.077Z,21.37
2019-01-05T01:17:46.031Z,21.38
2019-01-05T01:18:45.984Z,21.31
2019-01-05T01:19:45.936Z,21.34
2019-01-05T01:20:45.891Z,21.37
2019-01-05T01:21:45.847Z,21.47
2019-01-05T01:22:45.797Z,21.38
2019-01-05T01:23:45.749Z,21.40
2019-01-05T01:24:45.703Z,21.35
2019-01-05T01:25:45.656Z,21.35
2019-01-05T01:26:45.609Z,21.42
2019-01-05T01:27:45.612Z,21.37
2019-01-05T01:28:45.515Z,21.42
2019-01-05T01:29:45.469Z,21.38
2019-01-05T01:30:45.422Z,21.43
2019-01-05T01:31:45.377Z,21.40
2019-01-05T01:32:45.330Z,21.50
2019-01-05T01:33:45.281Z,21.46
2019-01-05T01:34:45.235Z,21.40
2019-01-05T01:35:45.187Z,21.42
2019-01-05T01:36:45.140Z,21.50
2019-01-05T01:37:45.094Z,21.40
2019-01-05T01:38:45.047Z,21.38
2019-01-05T01:39:45.000Z,21.44
2019-01-05T01:40:44.953Z,21.44
2019-01-05T01:41:44.906Z,21.46
2019-01-05T01:42:44.862Z,21.42
2019-01-05T01:43:44.813Z,21.38
2019-01-05T01:44:44.766Z,21.29
2019-01-05T01:45:44.719Z,21.44
2019-01-05T01:46:44.675Z,21.49
2019-01-05T01:47:44.625Z,21.37
2019-01-05T01:48:44.578Z,21.44
2019-01-05T01:49:44.532Z,21.42
2019-01-05T01:50:44.485Z,21.38
2019-01-05T01:51:44.438Z,21.37
2019-01-05T01:52:44.391Z,21.42
2019-01-05T01:53:44.347Z,21.43
2019-01-05T01:54:44.298Z,21.38
2019-01-05T01:55:44.250Z,21.46
2019-01-05T01:56:44.245Z,21.38
2019-01-05T01:57:44.159Z,21.42
2019-01-05T01:58:44.111Z,21.40
2019-01-05T01:59:44.064Z,21.42
2019-01-05T02:00:44.016Z,21.42
2019-01-05T02:01:43.970Z,21.46
2019-01-05T02:02:43.923Z,21.40
2019-01-05T02:03:43.876Z,21.38
2019-01-05T02:04:43.831Z,21.43
2019-01-05T02:05:43.782Z,21.42
2019-01-05T02:06:43.736Z,21.46
2019-01-05T02:07:44.005Z,21.35
2019-01-05T02:08:43.683Z,21.46
2019-01-05T02:09:43.595Z,21.46
2019-01-05T02:10:43.552Z,21.40
2019-01-05T02:11:43.507Z,21.40
2019-01-05T02:12:43.454Z,21.44
2019-01-05T02:13:43.407Z,21.40
2019-01-05T02:14:43.361Z,21.40
2019-01-05T02:15:43.313Z,21.38
2019-01-05T02:16:43.267Z,21.40
2019-01-05T02:17:43.221Z,21.40
2019-01-05T02:18:43.174Z,21.43
2019-01-05T02:19:43.126Z,21.42
2019-01-05T02:20:43.082Z,21.40
2019-01-05T02:21:43.033Z,21.46
2019-01-05T02:22:42.986Z,21.40
2019-01-05T02:23:42.939Z,21.42
2019-01-05T02:24:42.894Z,21.40
2019-01-05T02:25:42.845Z,21.38
2019-01-05T02:26:42.799Z,21.44
2019-01-05T02:27:42.760Z,21.38
2019-01-05T02:28:42.708Z,21.42
2019-01-05T02:29:42.658Z,21.47
2019-01-05T02:30:42.612Z,21.52
2019-01-05T02:31:42.567Z,21.42
2019-01-05T02:32:42.519Z,21.42
2019-01-05T02:33:42.473Z,21.40
2019-01-05T02:34:42.427Z,21.40
2019-01-05T02:35:42.377Z,21.37
2019-01-05T02:36:42.331Z,21.37
2019-01-05T02:37:42.322Z,21.38
2019-01-05T02:38:42.239Z,21.43
2019-01-05T02:39:42.193Z,21.40
2019-01-05T02:40:42.143Z,21.38
2019-01-05T02:41:42.097Z,21.32
2019-01-05T02:42:42.050Z,21.35
2019-01-05T02:43:42.002Z,21.47
2019-01-05T02:44:41.955Z,21.46
2019-01-05T02:45:41.914Z,21.47
2019-01-05T02:46:41.863Z,21.38
2019-01-05T02:47:41.815Z,21.43
2019-01-05T02:48:41.768Z,21.42
2019-01-05T02:49:41.722Z,21.47
2019-01-05T02:50:41.675Z,21.42
2019-01-05T02:51:41.627Z,21.44
2019-01-05T02:52:41.582Z,21.35
2019-01-05T02:53:41.592Z,21.44
2019-01-05T02:54:41.489Z,21.43
2019-01-05T02:55:41.445Z,21.40
2019-01-05T02:56:41.394Z,21.38
2019-01-05T02:57:41.365Z,21.40
2019-01-05T02:58:41.308Z,21.40
2019-01-05T02:59:41.253Z,21.43
2019-01-05T03:00:41.206Z,21.40
2019-01-05T03:01:41.159Z,21.42
2019-01-05T03:02:41.113Z,21.47
2019-01-05T03:03:41.065Z,21.42
2019-01-05T03:04:41.020Z,21.40
2019-01-05T03:05:40.972Z,21.38
2019-01-05T03:06:40.929Z,21.38
2019-01-05T03:07:40.878Z,21.42
2019-01-05T03:08:40.832Z,21.44
2019-01-05T03:09:40.794Z,21.42
2019-01-05T03:10:40.738Z,21.38
2019-01-05T03:11:40.691Z,21.42
2019-01-05T03:12:40.644Z,21.44
2019-01-05T03:13:40.597Z,21.52
2019-01-05T03:14:40.601Z,21.56
2019-01-05T03:15:40.504Z,21.47
2019-01-05T03:16:40.457Z,21.49
2019-01-05T03:17:40.410Z,21.46
2019-01-05T03:18:40.368Z,21.38
2019-01-05T03:19:40.315Z,21.37
2019-01-05T03:20:40.272Z,21.38
2019-01-05T03:21:40.224Z,21.44
2019-01-05T03:22:40.175Z,21.50
2019-01-05T03:23:40.131Z,21.46
2019-01-05T03:24:40.082Z,21.58
2019-01-05T03:25:40.035Z,21.46
2019-01-05T03:26:39.989Z,21.43
2019-01-05T03:27:39.940Z,21.40
2019-01-05T03:28:39.895Z,21.37
2019-01-05T03:29:39.848Z,21.38
2019-01-05T03:30:39.802Z,21.46
2019-01-05T03:31:39.754Z,21.47
2019-01-05T03:32:40.032Z,21.44
2019-01-05T03:33:39.979Z,21.46
2019-01-05T03:34:39.614Z,21.52
2019-01-05T03:35:39.666Z,21.43
2019-01-05T03:36:39.523Z,21.43
2019-01-05T03:37:39.472Z,21.53
2019-01-05T03:38:39.425Z,21.44
2019-01-05T03:39:39.379Z,21.47
2019-01-05T03:40:39.333Z,21.49
2019-01-05T03:41:39.286Z,21.49
2019-01-05T03:42:39.239Z,21.43
2019-01-05T03:43:39.191Z,21.50
2019-01-05T03:44:39.147Z,21.44
2019-01-05T03:45:39.099Z,21.49
2019-01-05T03:46:39.052Z,21.47
2019-01-05T03:47:39.007Z,21.42
2019-01-05T03:48:38.960Z,21.43
2019-01-05T03:49:38.912Z,21.46
2019-01-05T03:50:38.866Z,21.54
2019-01-05T03:51:38.818Z,21.40
2019-01-05T03:52:38.770Z,21.43
2019-01-05T03:53:38.738Z,21.32
2019-01-05T03:54:38.676Z,21.44
2019-01-05T03:55:38.631Z,21.46
2019-01-05T03:56:38.588Z,21.42
2019-01-05T03:57:38.536Z,21.43
2019-01-05T03:58:38.496Z,21.43
2019-01-05T03:59:38.442Z,21.43
2019-01-05T04:00:38.396Z,21.40
2019-01-05T04:01:38.350Z,21.40
2019-01-05T04:02:38.305Z,21.44
2019-01-05T04:03:38.255Z,21.42
2019-01-05T04:04:38.207Z,21.47
2019-01-05T04:05:38.162Z,21.53
2019-01-05T04:06:38.114Z,21.44
2019-01-05T04:07:38.068Z,21.42
2019-01-05T04:08:38.025Z,21.43
2019-01-05T04:09:37.974Z,21.38
2019-01-05T04:10:37.929Z,21.43
2019-01-05T04:11:37.880Z,21.40
2019-01-05T04:12:37.834Z,21.43
2019-01-05T04:13:37.787Z,21.44
2019-01-05T04:14:37.741Z,21.40
2019-01-05T04:15:37.693Z,21.38
2019-01-05T04:16:37.646Z,21.49
2019-01-05T04:17:37.606Z,21.40
2019-01-05T04:18:37.566Z,21.46
2019-01-05T04:19:37.504Z,21.44
2019-01-05T04:20:37.466Z,21.37
2019-01-05T04:21:37.415Z,21.49
2019-01-05T04:22:37.366Z,21.49
2019-01-05T04:23:37.318Z,21.42
2019-01-05T04:24:37.271Z,21.43
2019-01-05T04:25:37.226Z,21.47
2019-01-05T04:26:37.183Z,21.42
2019-01-05T04:27:37.131Z,21.53
2019-01-05T04:28:37.085Z,21.42
2019-01-05T04:29:37.038Z,21.46
2019-01-05T04:30:36.991Z,21.49
2019-01-05T04:31:36.946Z,21.44
2019-01-05T04:32:36.902Z,21.46
2019-01-05T04:33:36.851Z,21.52
2019-01-05T04:34:36.804Z,21.50
2019-01-05T04:35:36.756Z,21.49
2019-01-05T04:36:36.710Z,21.52
2019-01-05T04:37:36.670Z,21.40
2019-01-05T04:38:36.616Z,21.44
2019-01-05T04:39:36.573Z,21.47
2019-01-05T04:40:36.673Z,21.43
2019-01-05T04:41:36.477Z,21.47
2019-01-05T04:42:36.433Z,21.43
2019-01-05T04:43:36.383Z,21.52
2019-01-05T04:44:36.335Z,21.42
2019-01-05T04:45:36.289Z,21.49
2019-01-05T04:46:36.247Z,21.43
2019-01-05T04:47:36.196Z,21.43
2019-01-05T04:48:36.148Z,21.44
2019-01-05T04:49:36.103Z,21.46
2019-01-05T04:50:36.056Z,21.42
2019-01-05T04:51:36.007Z,21.49
2019-01-05T04:52:35.962Z,21.46
2019-01-05T04:53:35.914Z,21.50
2019-01-05T04:54:35.868Z,21.52
2019-01-05T04:55:35.821Z,21.47
2019-01-05T04:56:35.774Z,21.43
2019-01-05T04:57:35.728Z,21.43
2019-01-05T04:58:35.680Z,21.47
2019-01-05T04:59:35.633Z,21.50
2019-01-05T05:00:35.586Z,21.42
2019-01-05T05:01:35.540Z,21.43
2019-01-05T05:02:35.493Z,21.47
2019-01-05T05:03:35.447Z,21.49
2019-01-05T05:04:35.400Z,21.40
2019-01-05T05:05:35.352Z,21.43
2019-01-05T05:06:35.305Z,21.44
2019-01-05T05:07:35.258Z,21.47
2019-01-05T05:08:35.212Z,21.47
2019-01-05T05:09:35.168Z,21.46
2019-01-05T05:10:35.118Z,21.50
2019-01-05T05:11:35.071Z,21.52
2019-01-05T05:12:35.044Z,21.52
2019-01-05T05:13:34.978Z,21.49
2019-01-05T05:14:34.931Z,21.53
2019-01-05T05:15:34.884Z,21.53
2019-01-05T05:16:34.838Z,21.50
2019-01-05T05:17:34.792Z,21.54
2019-01-05T05:18:34.745Z,21.58
2019-01-05T05:19:34.698Z,21.56
2019-01-05T05:20:34.650Z,21.47
2019-01-05T05:21:34.609Z,21.47
2019-01-05T05:22:35.870Z,21.50
2019-01-05T05:23:34.517Z,21.47
2019-01-05T05:24:34.465Z,21.53
2019-01-05T05:25:34.417Z,21.46
2019-01-05T05:26:34.370Z,21.52
2019-01-05T05:27:34.325Z,21.49
2019-01-05T05:28:34.276Z,21.53
2019-01-05T05:29:34.230Z,21.49
2019-01-05T05:30:35.543Z,21.49
2019-01-05T05:31:34.136Z,21.56
2019-01-05T05:32:34.089Z,21.54
2019-01-05T05:33:34.042Z,21.46
2019-01-05T05:34:33.998Z,21.49
2019-01-05T05:35:33.950Z,21.52
2019-01-05T05:36:33.902Z,21.53
2019-01-05T05:37:33.855Z,21.47
2019-01-05T05:38:33.812Z,21.42
2019-01-05T05:39:33.762Z,21.52
2019-01-05T05:40:33.817Z,21.52
2019-01-05T05:41:33.668Z,21.54
2019-01-05T05:42:33.622Z,21.53
2019-01-05T05:43:33.624Z,21.47
2019-01-05T05:44:33.526Z,21.53
2019-01-05T05:45:33.481Z,21.49
2019-01-05T05:46:33.435Z,21.54
2019-01-05T05:47:33.386Z,21.52
2019-01-05T05:48:33.340Z,21.50
2019-01-05T05:49:33.294Z,21.44
2019-01-05T05:50:33.248Z,21.53
2019-01-05T05:51:33.201Z,21.50
2019-01-05T05:52:33.154Z,21.52
2019-01-05T05:53:33.108Z,21.53
2019-01-05T05:54:33.061Z,21.52
2019-01-05T05:55:33.013Z,21.56
2019-01-05T05:56:32.966Z,21.56
2019-01-05T05:57:32.919Z,21.52
2019-01-05T05:58:32.875Z,21.53
2019-01-05T05:59:32.825Z,21.50
2019-01-05T06:00:32.779Z,21.47
2019-01-05T06:01:32.733Z,21.49
2019-01-05T06:02:32.736Z,21.53
2019-01-05T06:03:32.739Z,21.54
2019-01-05T06:04:32.742Z,21.50
2019-01-05T06:05:32.545Z,21.49
2019-01-05T06:06:32.499Z,21.52
2019-01-05T06:07:32.451Z,21.43
2019-01-05T06:08:32.404Z,21.50
2019-01-05T06:09:32.358Z,21.47
2019-01-05T06:10:32.311Z,21.61
2019-01-05T06:11:32.264Z,21.53
2019-01-05T06:12:32.218Z,21.54
2019-01-05T06:13:32.171Z,21.53
2019-01-05T06:14:32.134Z,21.62
2019-01-05T06:15:32.077Z,21.47
2019-01-05T06:16:32.031Z,21.54
2019-01-05T06:17:31.984Z,21.56
2019-01-05T06:18:31.938Z,21.58
2019-01-05T06:19:31.889Z,21.49
2019-01-05T06:20:31.843Z,21.56
2019-01-05T06:21:31.802Z,21.50
2019-01-05T06:22:31.750Z,21.50
2019-01-05T06:23:31.703Z,21.52
2019-01-05T06:24:31.657Z,21.47
2019-01-05T06:25:31.610Z,21.54
2019-01-05T06:26:31.612Z,21.52
2019-01-05T06:27:31.516Z,21.56
2019-01-05T06:28:31.469Z,21.54
2019-01-05T06:29:31.425Z,21.54
2019-01-05T06:30:31.377Z,21.52
2019-01-05T06:31:31.329Z,21.50
2019-01-05T06:32:31.282Z,21.53
2019-01-05T06:33:31.243Z,21.50
2019-01-05T06:34:31.191Z,21.46
2019-01-05T06:35:31.142Z,21.59
2019-01-05T06:36:31.095Z,21.49
2019-01-05T06:37:31.048Z,21.47
2019-01-05T06:38:31.002Z,21.50
2019-01-05T06:39:30.955Z,21.52
2019-01-05T06:40:30.908Z,21.61
2019-01-05T06:41:30.862Z,21.53
2019-01-05T06:42:30.815Z,21.53
2019-01-05T06:43:30.768Z,21.58
2019-01-05T06:44:30.720Z,21.47
2019-01-05T06:45:30.674Z,21.53
2019-01-05T06:46:30.629Z,21.61
2019-01-05T06:47:30.580Z,21.54
2019-01-05T06:48:30.534Z,21.53
2019-01-05T06:49:30.488Z,21.56
2019-01-05T06:50:30.441Z,21.53
2019-01-05T06:51:30.393Z,21.46
2019-01-05T06:52:30.347Z,21.53
2019-01-05T06:53:30.300Z,21.59
2019-01-05T06:54:30.254Z,21.53
2019-01-05T06:55:30.205Z,21.53
2019-01-05T06:56:30.160Z,21.50
2019-01-05T06:57:30.114Z,21.53
2019-01-05T06:58:30.066Z,21.58
2019-01-05T06:59:30.019Z,21.49
2019-01-05T07:00:29.973Z,21.49
2019-01-05T07:01:29.926Z,21.54
2019-01-05T07:02:30.196Z,21.61
2019-01-05T07:03:29.831Z,21.56
2019-01-05T07:04:29.790Z,21.61
2019-01-05T07:05:29.740Z,21.56
2019-01-05T07:06:29.693Z,21.54
2019-01-05T07:07:29.645Z,21.62
2019-01-05T07:08:29.599Z,21.56
2019-01-05T07:09:29.603Z,21.61
2019-01-05T07:10:29.506Z,21.59
2019-01-05T07:11:29.458Z,21.52
2019-01-05T07:12:29.412Z,21.58
2019-01-05T07:13:29.366Z,21.54
2019-01-05T07:14:29.317Z,21.59
2019-01-05T07:15:29.271Z,21.52
2019-01-05T07:16:29.224Z,21.59
2019-01-05T07:17:29.181Z,21.56
2019-01-05T07:18:29.131Z,21.52
2019-01-05T07:19:29.083Z,21.65
2019-01-05T07:20:29.037Z,21.64
2019-01-05T07:21:28.990Z,21.58
2019-01-05T07:22:28.943Z,21.61
2019-01-05T07:23:28.897Z,21.53
2019-01-05T07:24:28.849Z,21.58
2019-01-05T07:25:28.804Z,21.62
2019-01-05T07:26:28.758Z,21.58
2019-01-05T07:27:28.709Z,21.59
2019-01-05T07:28:28.663Z,21.56
2019-01-05T07:29:28.616Z,21.58
2019-01-05T07:30:28.570Z,21.58
2019-01-05T07:31:28.522Z,21.62
2019-01-05T07:32:28.475Z,21.61
2019-01-05T07:33:28.430Z,21.59
2019-01-05T07:34:28.382Z,21.53
2019-01-05T07:35:28.335Z,21.53
2019-01-05T07:36:28.288Z,21.62
2019-01-05T07:37:28.244Z,21.58
2019-01-05T07:38:28.195Z,21.58
2019-01-05T07:39:28.150Z,21.65
2019-01-05T07:40:28.104Z,21.53
2019-01-05T07:41:28.055Z,21.58
2019-01-05T07:42:28.016Z,21.64
2019-01-05T07:43:27.962Z,21.65
2019-01-05T07:44:27.915Z,21.61
2019-01-05T07:45:27.873Z,21.61
2019-01-05T07:46:27.821Z,21.59
2019-01-05T07:47:27.774Z,21.59
2019-01-05T07:48:27.728Z,21.62
2019-01-05T07:49:27.681Z,21.62
2019-01-05T07:50:27.634Z,21.56
2019-01-05T07:51:27.587Z,21.65
2019-01-05T07:52:27.543Z,21.61
2019-01-05T07:53:27.494Z,21.62
2019-01-05T07:54:27.447Z,21.54
2019-01-05T07:55:27.400Z,21.59
2019-01-05T07:56:27.353Z,21.65
2019-01-05T07:57:27.307Z,21.61
2019-01-05T07:58:27.260Z,21.64
2019-01-05T07:59:27.213Z,21.65
2019-01-05T08:00:27.166Z,21.54
2019-01-05T08:01:27.119Z,21.62
2019-01-05T08:02:27.073Z,21.64
2019-01-05T08:03:27.026Z,21.59
2019-01-05T08:04:26.979Z,21.56
2019-01-05T08:05:26.933Z,21.65
2019-01-05T08:06:26.886Z,21.56
2019-01-05T08:07:26.838Z,21.62
2019-01-05T08:08:26.792Z,21.61
2019-01-05T08:09:26.745Z,21.65
2019-01-05T08:10:26.699Z,21.56
2019-01-05T08:11:26.655Z,21.65
2019-01-05T08:12:26.605Z,21.65
2019-01-05T08:13:26.609Z,21.68
2019-01-05T08:14:26.512Z,21.65
2019-01-05T08:15:26.465Z,21.67
2019-01-05T08:16:26.418Z,21.62
2019-01-05T08:17:26.373Z,21.65
2019-01-05T08:18:26.326Z,21.61
2019-01-05T08:19:26.278Z,21.65
2019-01-05T08:20:26.231Z,21.64
2019-01-05T08:21:26.185Z,21.65
2019-01-05T08:22:26.144Z,21.64
2019-01-05T08:23:26.091Z,21.65
2019-01-05T08:24:26.044Z,21.74
2019-01-05T08:25:25.997Z,21.68
2019-01-05T08:26:25.951Z,21.75
2019-01-05T08:27:25.909Z,21.77
2019-01-05T08:28:25.859Z,21.74
2019-01-05T08:29:25.810Z,21.82
2019-01-05T08:30:25.767Z,21.77
2019-01-05T08:31:25.719Z,21.71
2019-01-05T08:32:25.670Z,21.82
2019-01-05T08:33:25.625Z,21.74
2019-01-05T08:34:25.577Z,21.71
2019-01-05T08:35:25.529Z,21.80
2019-01-05T08:36:25.484Z,21.65
2019-01-05T08:37:25.437Z,21.79
2019-01-05T08:38:25.391Z,21.80
2019-01-05T08:39:25.343Z,21.68
2019-01-05T08:40:25.297Z,21.77
2019-01-05T08:41:25.250Z,21.77
2019-01-05T08:42:25.204Z,21.77
2019-01-05T08:43:25.156Z,21.77
2019-01-05T08:44:25.110Z,21.74
2019-01-05T08:45:25.063Z,21.77
2019-01-05T08:46:25.018Z,21.79
2019-01-05T08:47:24.970Z,21.82
2019-01-05T08:48:24.923Z,21.79
2019-01-05T08:49:24.877Z,21.77
2019-01-05T08:50:24.841Z,21.72
2019-01-05T08:51:24.783Z,21.82
2019-01-05T08:52:24.739Z,21.82
2019-01-05T08:53:24.690Z,21.75
2019-01-05T08:54:24.643Z,21.71
2019-01-05T08:55:24.595Z,21.80
2019-01-05T08:56:24.549Z,21.79
2019-01-05T08:57:24.503Z,21.80
2019-01-05T08:58:24.457Z,21.84
2019-01-05T08:59:24.410Z,21.80
2019-01-05T09:00:24.363Z,21.82
2019-01-05T09:01:24.316Z,21.77
2019-01-05T09:02:24.309Z,21.80
2019-01-05T09:03:24.223Z,21.84
2019-01-05T09:04:24.177Z,21.77
2019-01-05T09:05:24.131Z,21.86
2019-01-05T09:06:24.083Z,21.83
2019-01-05T09:07:24.035Z,21.82
2019-01-05T09:08:23.990Z,21.80
2019-01-05T09:09:23.943Z,21.90
2019-01-05T09:10:23.897Z,21.77
2019-01-05T09:11:23.849Z,21.88
2019-01-05T09:12:23.803Z,21.88
2019-01-05T09:13:23.756Z,21.84
2019-01-05T09:14:23.711Z,21.80
2019-01-05T09:15:23.668Z,21.88
2019-01-05T09:16:23.616Z,21.90
2019-01-05T09:17:23.571Z,21.88
2019-01-05T09:18:23.524Z,21.91
2019-01-05T09:19:23.475Z,21.91
2019-01-05T09:20:23.436Z,21.96
2019-01-05T09:21:23.383Z,21.96
2019-01-05T09:22:23.337Z,21.94
2019-01-05T09:23:23.290Z,21.99
2019-01-05T09:24:23.244Z,22.02
2019-01-05T09:25:23.198Z,22.00
2019-01-05T09:26:23.151Z,21.94
2019-01-05T09:27:23.103Z,21.98
2019-01-05T09:28:23.060Z,22.03
2019-01-05T09:29:23.010Z,21.91
2019-01-05T09:30:22.964Z,21.99
2019-01-05T09:31:22.917Z,21.92
2019-01-05T09:32:22.875Z,21.99
2019-01-05T09:33:22.823Z,21.96
2019-01-05T09:34:22.780Z,21.92
2019-01-05T09:35:22.731Z,21.94
2019-01-05T09:36:22.684Z,21.83
2019-01-05T09:37:22.638Z,21.83
2019-01-05T09:38:22.595Z,21.88
2019-01-05T09:39:22.545Z,22.00
2019-01-05T09:40:22.507Z,22.02
2019-01-05T09:41:22.451Z,21.92
2019-01-05T09:42:22.405Z,21.96
2019-01-05T09:43:22.358Z,21.92
2019-01-05T09:44:22.312Z,21.98
2019-01-05T09:45:22.265Z,21.98
2019-01-05T09:46:22.221Z,22.06
2019-01-05T09:47:22.171Z,22.02
2019-01-05T09:48:22.125Z,21.90
2019-01-05T09:49:22.079Z,21.96
2019-01-05T09:50:22.035Z,21.94
2019-01-05T09:51:21.985Z,21.94
2019-01-05T09:52:21.939Z,21.90
2019-01-05T09:53:21.893Z,21.98
2019-01-05T09:54:21.846Z,21.94
2019-01-05T09:55:21.799Z,21.99
2019-01-05T09:56:21.753Z,21.88
2019-01-05T09:57:21.707Z,21.92
2019-01-05T09:58:21.661Z,21.92
2019-01-05T09:59:21.613Z,22.00
2019-01-05T10:00:21.567Z,21.88
2019-01-05T10:01:21.521Z,21.86
2019-01-05T10:02:21.473Z,21.88
2019-01-05T10:03:21.431Z,21.90
2019-01-05T10:04:21.382Z,21.83
2019-01-05T10:05:21.335Z,21.88
2019-01-05T10:06:21.288Z,21.84
2019-01-05T10:07:21.240Z,21.84
2019-01-05T10:08:21.194Z,21.91
2019-01-05T10:09:21.148Z,21.88
2019-01-05T10:10:21.100Z,21.88
2019-01-05T10:11:21.055Z,21.88
2019-01-05T10:12:21.007Z,21.90
2019-01-05T10:13:20.962Z,21.84
2019-01-05T10:14:20.916Z,21.86
2019-01-05T10:15:20.868Z,21.86
2019-01-05T10:16:20.823Z,21.88
2019-01-05T10:17:20.776Z,21.86
2019-01-05T10:18:20.730Z,21.86
2019-01-05T10:19:20.688Z,21.88
2019-01-05T10:20:20.636Z,21.94
2019-01-05T10:21:20.590Z,21.90
2019-01-05T10:22:20.643Z,21.99
2019-01-05T10:23:20.497Z,21.98
2019-01-05T10:24:20.450Z,22.00
2019-01-05T10:25:20.403Z,21.98
2019-01-05T10:26:20.357Z,21.99
2019-01-05T10:27:20.309Z,21.96
2019-01-05T10:28:20.263Z,21.88
2019-01-05T10:29:20.217Z,21.98
2019-01-05T10:30:20.170Z,21.98
2019-01-05T10:31:20.133Z,21.92
2019-01-05T10:32:20.076Z,21.99
2019-01-05T10:33:20.031Z,21.98
2019-01-05T10:34:19.983Z,21.91
2019-01-05T10:35:19.937Z,21.91
2019-01-05T10:36:19.891Z,21.94
2019-01-05T10:37:19.849Z,21.92
2019-01-05T10:38:19.798Z,21.99
2019-01-05T10:39:19.751Z,21.99
2019-01-05T10:40:19.704Z,21.94
2019-01-05T10:41:19.658Z,22.06
2019-01-05T10:42:19.612Z,22.03
2019-01-05T10:43:19.614Z,22.02
2019-01-05T10:44:19.569Z,21.99
2019-01-05T10:45:19.472Z,21.90
2019-01-05T10:46:19.426Z,22.02
2019-01-05T10:47:19.379Z,21.94
2019-01-05T10:48:19.332Z,22.00
2019-01-05T10:49:19.286Z,21.99
2019-01-05T10:50:19.240Z,21.92
2019-01-05T10:51:19.193Z,21.96
2019-01-05T10:52:19.147Z,21.94
2019-01-05T10:53:19.099Z,21.98
2019-01-05T10:54:19.053Z,21.98
2019-01-05T10:55:19.007Z,21.94
2019-01-05T10:56:18.961Z,21.98
2019-01-05T10:57:18.915Z,21.98
2019-01-05T10:58:18.868Z,21.91
2019-01-05T10:59:18.821Z,21.98
2019-01-05T11:00:18.774Z,21.96
2019-01-05T11:01:18.728Z,21.91
2019-01-05T11:02:18.691Z,21.92
2019-01-05T11:03:18.634Z,21.86
2019-01-05T11:04:18.589Z,21.82
2019-01-05T11:05:18.542Z,21.91
2019-01-05T11:06:18.499Z,21.90
2019-01-05T11:07:18.449Z,21.92
2019-01-05T11:08:18.410Z,21.88
2019-01-05T11:09:18.381Z,21.92
2019-01-05T11:10:18.310Z,21.83
2019-01-05T11:11:18.262Z,21.88
2019-01-05T11:12:18.216Z,21.94
2019-01-05T11:13:18.170Z,21.88
2019-01-05T11:14:18.126Z,21.84
2019-01-05T11:15:18.075Z,21.83
2019-01-05T11:16:18.029Z,21.88
2019-01-05T11:17:17.987Z,21.86
2019-01-05T11:18:17.942Z,21.92
2019-01-05T11:19:17.900Z,21.79
2019-01-05T11:20:17.848Z,21.79
2019-01-05T11:21:17.797Z,21.82
2019-01-05T11:22:17.754Z,21.82
2019-01-05T11:23:17.703Z,21.79
2019-01-05T11:24:17.658Z,21.90
2019-01-05T11:25:17.614Z,21.91
2019-01-05T11:26:17.620Z,21.90
2019-01-05T11:27:17.517Z,21.88
2019-01-05T11:28:17.471Z,21.91
2019-01-05T11:29:17.423Z,21.92
2019-01-05T11:30:17.378Z,21.84
2019-01-05T11:31:17.331Z,21.90
2019-01-05T11:32:17.285Z,21.84
2019-01-05T11:33:17.238Z,21.86
2019-01-05T11:34:17.197Z,21.90
2019-01-05T11:35:17.154Z,21.88
2019-01-05T11:36:17.107Z,21.91
2019-01-05T11:37:17.058Z,21.92
2019-01-05T11:38:17.005Z,21.77
2019-01-05T11:39:16.974Z,21.91
2019-01-05T11:40:16.910Z,21.90
2019-01-05T11:41:16.865Z,21.84
2019-01-05T11:42:16.819Z,21.91
2019-01-05T11:43:16.782Z,21.91
2019-01-05T11:44:16.725Z,21.91
2019-01-05T11:45:16.679Z,21.92
2019-01-05T11:46:16.644Z,21.82
2019-01-05T11:47:16.585Z,21.96
2019-01-05T11:48:16.598Z,21.96
2019-01-05T11:49:16.492Z,21.90
2019-01-05T11:50:16.446Z,21.94
2019-01-05T11:51:16.412Z,21.91
2019-01-05T11:52:16.355Z,21.96
2019-01-05T11:53:16.304Z,21.84
2019-01-05T11:54:16.264Z,21.96
2019-01-05T11:55:16.224Z,21.91
2019-01-05T11:56:16.167Z,21.94
2019-01-05T11:57:16.119Z,22.00
2019-01-05T11:58:16.073Z,21.99
2019-01-05T11:59:16.048Z,22.00
2019-01-05T12:00:15.979Z,21.92
2019-01-05T12:01:15.933Z,22.05
2019-01-05T12:02:19.611Z,22.02
2019-01-05T12:03:15.838Z,21.98
2019-01-05T12:04:15.793Z,21.88
2019-01-05T12:05:15.750Z,21.86
2019-01-05T12:06:15.702Z,21.91
2019-01-05T12:07:15.672Z,21.86
2019-01-05T12:08:15.607Z,21.86
2019-01-05T12:09:15.564Z,21.90
2019-01-05T12:10:15.514Z,21.86
2019-01-05T12:11:15.467Z,21.91
2019-01-05T12:12:15.421Z,21.88
2019-01-05T12:13:15.375Z,21.90
2019-01-05T12:14:15.328Z,21.92
2019-01-05T12:15:15.280Z,21.92
2019-01-05T12:16:15.235Z,21.92
2019-01-05T12:17:15.188Z,21.92
2019-01-05T12:18:15.142Z,21.92
2019-01-05T12:19:15.093Z,21.90
2019-01-05T12:20:15.049Z,21.88
2019-01-05T12:21:15.002Z,21.86
2019-01-05T12:22:14.955Z,21.90
2019-01-05T12:23:14.909Z,21.77
2019-01-05T12:24:14.862Z,21.88
2019-01-05T12:25:14.836Z,21.88
2019-01-05T12:26:14.769Z,21.77
2019-01-05T12:27:14.722Z,21.91
2019-01-05T12:28:14.676Z,21.82
2019-01-05T12:29:14.629Z,21.90
2019-01-05T12:30:14.583Z,21.83
2019-01-05T12:31:14.539Z,21.84
2019-01-05T12:32:14.489Z,21.83
2019-01-05T12:33:14.443Z,21.80
2019-01-05T12:34:14.396Z,21.82
2019-01-05T12:35:14.349Z,21.82
2019-01-05T12:36:14.307Z,21.80
2019-01-05T12:37:14.256Z,21.80
2019-01-05T12:38:14.211Z,21.79
2019-01-05T12:39:14.163Z,21.84
2019-01-05T12:40:14.117Z,21.79
2019-01-05T12:41:14.070Z,21.80
2019-01-05T12:42:14.025Z,21.83
2019-01-05T12:43:13.977Z,21.72
2019-01-05T12:44:13.931Z,21.74
2019-01-05T12:45:13.884Z,21.71
2019-01-05T12:46:13.837Z,21.82
2019-01-05T12:47:13.792Z,21.82
2019-01-05T12:48:13.744Z,21.79
2019-01-05T12:49:13.698Z,21.79
2019-01-05T12:50:13.650Z,21.79
2019-01-05T12:51:13.603Z,21.71
2019-01-05T12:52:13.607Z,21.72